sensor_id;sensor_type;location;lat;lon;timestamp;P1;durP1;ratioP1;P2;durP2;ratioP2
6432;SDS011;3249;42.690;23.260;2023-07-13T00:01:28;8.00;;;6.50;;
6432;SDS011;3249;42.690;23.260;2023-07-13T00:03:58;8.77;;;6.70;;
6432;SDS011;3249;42.690;23.260;2023-07-13T00:06:31;7.37;;;6.70;;
6432;SDS011;3249;42.690;23.260;2023-07-13T00:09:01;7.47;;;6.50;;
6432;SDS011;3249;42.690;23.260;2023-07-13T00:11:30;7.57;;;6.87;;
6432;SDS011;3249;42.690;23.260;2023-07-13T00:13:59;7.60;;;6.80;;
6432;SDS011;3249;42.690;23.260;2023-07-13T00:16:28;8.77;;;6.60;;
6432;SDS011;3249;42.690;23.260;2023-07-13T00:18:57;11.83;;;7.13;;
6432;SDS011;3249;42.690;23.260;2023-07-13T00:21:29;7.33;;;6.57;;
6432;SDS011;3249;42.690;23.260;2023-07-13T00:23:58;6.70;;;6.10;;
6432;SDS011;3249;42.690;23.260;2023-07-13T00:26:27;6.80;;;6.27;;
6432;SDS011;3249;42.690;23.260;2023-07-13T00:28:57;9.40;;;6.47;;
6432;SDS011;3249;42.690;23.260;2023-07-13T00:31:28;7.10;;;6.10;;
6432;SDS011;3249;42.690;23.260;2023-07-13T00:33:57;7.93;;;6.63;;
6432;SDS011;3249;42.690;23.260;2023-07-13T00:36:29;7.77;;;5.90;;
6432;SDS011;3249;42.690;23.260;2023-07-13T00:38:59;8.60;;;6.33;;
6432;SDS011;3249;42.690;23.260;2023-07-13T00:41:30;11.47;;;6.13;;
6432;SDS011;3249;42.690;23.260;2023-07-13T00:43:59;7.93;;;6.53;;
6432;SDS011;3249;42.690;23.260;2023-07-13T00:46:29;11.07;;;6.70;;
6432;SDS011;3249;42.690;23.260;2023-07-13T00:49:01;9.63;;;6.57;;
6432;SDS011;3249;42.690;23.260;2023-07-13T00:51:36;7.63;;;6.60;;
6432;SDS011;3249;42.690;23.260;2023-07-13T00:54:13;9.27;;;6.43;;
6432;SDS011;3249;42.690;23.260;2023-07-13T00:56:43;9.73;;;6.60;;
6432;SDS011;3249;42.690;23.260;2023-07-13T00:59:13;7.10;;;6.40;;
6432;SDS011;3249;42.690;23.260;2023-07-13T01:01:45;10.17;;;6.03;;
6432;SDS011;3249;42.690;23.260;2023-07-13T01:04:16;8.73;;;7.77;;
6432;SDS011;3249;42.690;23.260;2023-07-13T01:06:48;10.87;;;8.13;;
6432;SDS011;3249;42.690;23.260;2023-07-13T01:09:17;12.53;;;7.03;;
6432;SDS011;3249;42.690;23.260;2023-07-13T01:11:48;7.73;;;6.97;;
6432;SDS011;3249;42.690;23.260;2023-07-13T01:14:17;8.13;;;7.00;;
6432;SDS011;3249;42.690;23.260;2023-07-13T01:16:46;8.77;;;6.90;;
6432;SDS011;3249;42.690;23.260;2023-07-13T01:19:22;7.73;;;6.93;;
6432;SDS011;3249;42.690;23.260;2023-07-13T01:22:04;9.73;;;6.80;;
6432;SDS011;3249;42.690;23.260;2023-07-13T01:24:35;7.80;;;6.70;;
6432;SDS011;3249;42.690;23.260;2023-07-13T01:27:05;8.63;;;6.97;;
6432;SDS011;3249;42.690;23.260;2023-07-13T01:29:35;9.53;;;6.60;;
6432;SDS011;3249;42.690;23.260;2023-07-13T01:32:08;14.27;;;7.67;;
6432;SDS011;3249;42.690;23.260;2023-07-13T01:34:37;10.43;;;7.50;;
6432;SDS011;3249;42.690;23.260;2023-07-13T01:37:11;9.97;;;7.40;;
6432;SDS011;3249;42.690;23.260;2023-07-13T01:39:41;11.60;;;8.03;;
6432;SDS011;3249;42.690;23.260;2023-07-13T01:42:09;7.87;;;7.17;;
6432;SDS011;3249;42.690;23.260;2023-07-13T01:44:38;10.03;;;7.57;;
6432;SDS011;3249;42.690;23.260;2023-07-13T01:47:13;10.27;;;7.70;;
6432;SDS011;3249;42.690;23.260;2023-07-13T01:49:42;9.27;;;8.33;;
6432;SDS011;3249;42.690;23.260;2023-07-13T01:52:14;9.43;;;7.23;;
6432;SDS011;3249;42.690;23.260;2023-07-13T01:54:43;12.57;;;7.73;;
6432;SDS011;3249;42.690;23.260;2023-07-13T01:57:11;9.47;;;7.70;;
6432;SDS011;3249;42.690;23.260;2023-07-13T01:59:41;13.13;;;8.10;;
6432;SDS011;3249;42.690;23.260;2023-07-13T02:02:10;8.63;;;7.00;;
6432;SDS011;3249;42.690;23.260;2023-07-13T02:04:39;12.67;;;7.97;;
6432;SDS011;3249;42.690;23.260;2023-07-13T02:07:09;9.67;;;7.77;;
6432;SDS011;3249;42.690;23.260;2023-07-13T02:09:40;15.63;;;8.13;;
6432;SDS011;3249;42.690;23.260;2023-07-13T02:12:10;14.53;;;8.97;;
6432;SDS011;3249;42.690;23.260;2023-07-13T02:14:39;11.17;;;7.60;;
6432;SDS011;3249;42.690;23.260;2023-07-13T02:17:09;11.60;;;8.73;;
6432;SDS011;3249;42.690;23.260;2023-07-13T02:19:39;8.57;;;7.47;;
6432;SDS011;3249;42.690;23.260;2023-07-13T02:22:08;12.60;;;8.50;;
6432;SDS011;3249;42.690;23.260;2023-07-13T02:24:37;12.57;;;8.30;;
6432;SDS011;3249;42.690;23.260;2023-07-13T02:27:09;15.67;;;9.03;;
6432;SDS011;3249;42.690;23.260;2023-07-13T02:29:38;17.60;;;9.80;;
6432;SDS011;3249;42.690;23.260;2023-07-13T02:32:07;13.20;;;9.00;;
6432;SDS011;3249;42.690;23.260;2023-07-13T02:34:36;16.40;;;9.07;;
6432;SDS011;3249;42.690;23.260;2023-07-13T02:37:05;12.10;;;8.33;;
6432;SDS011;3249;42.690;23.260;2023-07-13T02:39:35;15.43;;;8.37;;
6432;SDS011;3249;42.690;23.260;2023-07-13T02:42:04;13.63;;;8.30;;
6432;SDS011;3249;42.690;23.260;2023-07-13T02:44:37;16.57;;;9.73;;
6432;SDS011;3249;42.690;23.260;2023-07-13T02:47:06;12.80;;;9.10;;
6432;SDS011;3249;42.690;23.260;2023-07-13T02:49:35;13.37;;;8.37;;
6432;SDS011;3249;42.690;23.260;2023-07-13T02:52:04;9.90;;;8.27;;
6432;SDS011;3249;42.690;23.260;2023-07-13T02:54:34;11.70;;;8.20;;
6432;SDS011;3249;42.690;23.260;2023-07-13T02:57:04;13.33;;;8.90;;
6432;SDS011;3249;42.690;23.260;2023-07-13T02:59:33;15.67;;;10.20;;
6432;SDS011;3249;42.690;23.260;2023-07-13T03:02:05;13.67;;;8.97;;
6432;SDS011;3249;42.690;23.260;2023-07-13T03:04:36;14.53;;;9.10;;
6432;SDS011;3249;42.690;23.260;2023-07-13T03:07:07;14.07;;;9.43;;
6432;SDS011;3249;42.690;23.260;2023-07-13T03:09:37;14.63;;;10.03;;
6432;SDS011;3249;42.690;23.260;2023-07-13T03:12:07;12.37;;;9.60;;
6432;SDS011;3249;42.690;23.260;2023-07-13T03:14:39;10.00;;;9.10;;
6432;SDS011;3249;42.690;23.260;2023-07-13T03:17:09;11.43;;;10.20;;
6432;SDS011;3249;42.690;23.260;2023-07-13T03:19:39;11.93;;;10.43;;
6432;SDS011;3249;42.690;23.260;2023-07-13T03:22:09;19.07;;;10.10;;
6432;SDS011;3249;42.690;23.260;2023-07-13T03:24:40;16.07;;;10.23;;
6432;SDS011;3249;42.690;23.260;2023-07-13T03:27:10;11.60;;;9.90;;
6432;SDS011;3249;42.690;23.260;2023-07-13T03:29:45;16.53;;;10.23;;
6432;SDS011;3249;42.690;23.260;2023-07-13T03:32:15;14.30;;;9.73;;
6432;SDS011;3249;42.690;23.260;2023-07-13T03:34:44;15.63;;;9.37;;
6432;SDS011;3249;42.690;23.260;2023-07-13T03:37:14;17.80;;;10.27;;
6432;SDS011;3249;42.690;23.260;2023-07-13T03:39:43;20.93;;;11.07;;
6432;SDS011;3249;42.690;23.260;2023-07-13T03:42:13;27.07;;;12.00;;
6432;SDS011;3249;42.690;23.260;2023-07-13T03:44:44;14.87;;;10.50;;
6432;SDS011;3249;42.690;23.260;2023-07-13T03:47:18;10.43;;;9.53;;
6432;SDS011;3249;42.690;23.260;2023-07-13T03:49:47;18.40;;;10.47;;
6432;SDS011;3249;42.690;23.260;2023-07-13T03:52:16;24.93;;;10.83;;
6432;SDS011;3249;42.690;23.260;2023-07-13T03:54:45;24.30;;;11.93;;
6432;SDS011;3249;42.690;23.260;2023-07-13T03:57:15;19.63;;;12.20;;
6432;SDS011;3249;42.690;23.260;2023-07-13T03:59:46;21.67;;;12.83;;
6432;SDS011;3249;42.690;23.260;2023-07-13T04:02:15;22.13;;;12.20;;
6432;SDS011;3249;42.690;23.260;2023-07-13T04:04:44;20.37;;;11.07;;
6432;SDS011;3249;42.690;23.260;2023-07-13T04:07:13;19.37;;;12.07;;
6432;SDS011;3249;42.690;23.260;2023-07-13T04:09:42;16.47;;;12.30;;
6432;SDS011;3249;42.690;23.260;2023-07-13T04:12:11;20.63;;;12.33;;
6432;SDS011;3249;42.690;23.260;2023-07-13T04:14:42;16.93;;;11.87;;
6432;SDS011;3249;42.690;23.260;2023-07-13T04:17:14;20.50;;;11.80;;
6432;SDS011;3249;42.690;23.260;2023-07-13T04:19:43;15.60;;;11.97;;
6432;SDS011;3249;42.690;23.260;2023-07-13T04:22:12;18.60;;;11.67;;
6432;SDS011;3249;42.690;23.260;2023-07-13T04:24:40;18.13;;;13.00;;
6432;SDS011;3249;42.690;23.260;2023-07-13T04:27:10;22.07;;;12.27;;
6432;SDS011;3249;42.690;23.260;2023-07-13T04:29:38;12.13;;;10.93;;
6432;SDS011;3249;42.690;23.260;2023-07-13T04:32:07;20.10;;;10.73;;
6432;SDS011;3249;42.690;23.260;2023-07-13T04:34:39;11.70;;;10.50;;
6432;SDS011;3249;42.690;23.260;2023-07-13T04:37:08;10.87;;;9.87;;
6432;SDS011;3249;42.690;23.260;2023-07-13T04:39:37;12.17;;;9.87;;
6432;SDS011;3249;42.690;23.260;2023-07-13T04:44:50;12.80;;;10.63;;
6432;SDS011;3249;42.690;23.260;2023-07-13T04:47:20;14.10;;;11.50;;
6432;SDS011;3249;42.690;23.260;2023-07-13T04:49:52;12.90;;;11.63;;
6432;SDS011;3249;42.690;23.260;2023-07-13T04:52:21;12.10;;;10.90;;
6432;SDS011;3249;42.690;23.260;2023-07-13T04:54:50;11.50;;;10.53;;
6432;SDS011;3249;42.690;23.260;2023-07-13T04:57:19;11.80;;;10.23;;
6432;SDS011;3249;42.690;23.260;2023-07-13T04:59:48;14.50;;;11.03;;
6432;SDS011;3249;42.690;23.260;2023-07-13T05:02:17;13.07;;;10.43;;
6432;SDS011;3249;42.690;23.260;2023-07-13T05:04:46;16.73;;;11.67;;
6432;SDS011;3249;42.690;23.260;2023-07-13T05:07:18;17.77;;;11.90;;
6432;SDS011;3249;42.690;23.260;2023-07-13T05:09:47;15.37;;;11.10;;
6432;SDS011;3249;42.690;23.260;2023-07-13T05:12:16;16.97;;;11.37;;
6432;SDS011;3249;42.690;23.260;2023-07-13T05:14:45;16.73;;;11.47;;
6432;SDS011;3249;42.690;23.260;2023-07-13T05:17:15;19.93;;;11.00;;
6432;SDS011;3249;42.690;23.260;2023-07-13T05:19:44;13.60;;;11.10;;
6432;SDS011;3249;42.690;23.260;2023-07-13T05:22:13;15.40;;;11.60;;
6432;SDS011;3249;42.690;23.260;2023-07-13T05:24:44;18.07;;;12.00;;
6432;SDS011;3249;42.690;23.260;2023-07-13T05:27:13;13.77;;;11.63;;
6432;SDS011;3249;42.690;23.260;2023-07-13T05:29:42;18.27;;;11.87;;
6432;SDS011;3249;42.690;23.260;2023-07-13T05:32:11;19.13;;;12.00;;
6432;SDS011;3249;42.690;23.260;2023-07-13T05:34:40;18.37;;;12.13;;
6432;SDS011;3249;42.690;23.260;2023-07-13T05:37:09;20.67;;;12.03;;
6432;SDS011;3249;42.690;23.260;2023-07-13T05:39:38;12.70;;;11.00;;
6432;SDS011;3249;42.690;23.260;2023-07-13T05:42:10;19.17;;;12.63;;
6432;SDS011;3249;42.690;23.260;2023-07-13T05:44:40;19.17;;;11.67;;
6432;SDS011;3249;42.690;23.260;2023-07-13T05:47:09;15.43;;;12.17;;
6432;SDS011;3249;42.690;23.260;2023-07-13T05:49:39;20.90;;;13.83;;
6432;SDS011;3249;42.690;23.260;2023-07-13T05:52:09;16.83;;;11.70;;
6432;SDS011;3249;42.690;23.260;2023-07-13T05:54:38;16.27;;;12.13;;
6432;SDS011;3249;42.690;23.260;2023-07-13T05:57:09;18.07;;;12.60;;
6432;SDS011;3249;42.690;23.260;2023-07-13T05:59:38;14.00;;;12.13;;
6432;SDS011;3249;42.690;23.260;2023-07-13T06:02:08;14.23;;;11.83;;
6432;SDS011;3249;42.690;23.260;2023-07-13T06:04:38;19.80;;;12.87;;
6432;SDS011;3249;42.690;23.260;2023-07-13T06:07:06;19.07;;;12.10;;
6432;SDS011;3249;42.690;23.260;2023-07-13T06:09:35;30.50;;;15.63;;
6432;SDS011;3249;42.690;23.260;2023-07-13T06:12:05;32.10;;;12.13;;
6432;SDS011;3249;42.690;23.260;2023-07-13T06:14:37;20.97;;;13.40;;
6432;SDS011;3249;42.690;23.260;2023-07-13T06:17:07;12.87;;;11.47;;
6432;SDS011;3249;42.690;23.260;2023-07-13T06:19:36;11.80;;;10.60;;
6432;SDS011;3249;42.690;23.260;2023-07-13T06:22:05;15.47;;;10.67;;
6432;SDS011;3249;42.690;23.260;2023-07-13T06:24:36;16.17;;;10.90;;
6432;SDS011;3249;42.690;23.260;2023-07-13T06:27:05;13.90;;;10.70;;
6432;SDS011;3249;42.690;23.260;2023-07-13T06:29:37;15.77;;;11.70;;
6432;SDS011;3249;42.690;23.260;2023-07-13T06:32:07;17.57;;;11.57;;
6432;SDS011;3249;42.690;23.260;2023-07-13T06:34:37;15.10;;;11.20;;
6432;SDS011;3249;42.690;23.260;2023-07-13T06:37:06;16.80;;;12.40;;
6432;SDS011;3249;42.690;23.260;2023-07-13T06:39:35;12.23;;;10.90;;
6432;SDS011;3249;42.690;23.260;2023-07-13T06:42:04;12.90;;;11.70;;
6432;SDS011;3249;42.690;23.260;2023-07-13T06:44:37;14.13;;;10.80;;
6432;SDS011;3249;42.690;23.260;2023-07-13T06:47:07;14.70;;;11.47;;
6432;SDS011;3249;42.690;23.260;2023-07-13T06:49:35;19.07;;;12.20;;
6432;SDS011;3249;42.690;23.260;2023-07-13T06:52:05;19.53;;;12.57;;
6432;SDS011;3249;42.690;23.260;2023-07-13T06:54:35;14.83;;;11.67;;
6432;SDS011;3249;42.690;23.260;2023-07-13T06:57:04;15.20;;;11.87;;
6432;SDS011;3249;42.690;23.260;2023-07-13T06:59:33;17.43;;;12.57;;
6432;SDS011;3249;42.690;23.260;2023-07-13T07:02:05;14.97;;;11.57;;
6432;SDS011;3249;42.690;23.260;2023-07-13T07:04:36;19.90;;;12.70;;
6432;SDS011;3249;42.690;23.260;2023-07-13T07:07:05;14.30;;;11.33;;
6432;SDS011;3249;42.690;23.260;2023-07-13T07:09:34;16.83;;;12.50;;
6432;SDS011;3249;42.690;23.260;2023-07-13T07:12:04;18.33;;;13.63;;
6432;SDS011;3249;42.690;23.260;2023-07-13T07:14:34;16.47;;;12.83;;
6432;SDS011;3249;42.690;23.260;2023-07-13T07:17:05;17.87;;;12.90;;
6432;SDS011;3249;42.690;23.260;2023-07-13T07:19:34;15.03;;;12.20;;
6432;SDS011;3249;42.690;23.260;2023-07-13T07:22:04;15.17;;;12.10;;
6432;SDS011;3249;42.690;23.260;2023-07-13T07:24:34;13.37;;;11.67;;
6432;SDS011;3249;42.690;23.260;2023-07-13T07:27:03;20.80;;;12.07;;
6432;SDS011;3249;42.690;23.260;2023-07-13T07:29:32;17.77;;;13.17;;
6432;SDS011;3249;42.690;23.260;2023-07-13T07:32:01;14.77;;;11.93;;
6432;SDS011;3249;42.690;23.260;2023-07-13T07:34:35;18.03;;;12.57;;
6432;SDS011;3249;42.690;23.260;2023-07-13T07:37:04;18.77;;;13.27;;
6432;SDS011;3249;42.690;23.260;2023-07-13T07:39:34;18.13;;;12.93;;
6432;SDS011;3249;42.690;23.260;2023-07-13T07:42:04;15.73;;;11.90;;
6432;SDS011;3249;42.690;23.260;2023-07-13T07:44:36;14.87;;;11.63;;
6432;SDS011;3249;42.690;23.260;2023-07-13T07:47:08;16.27;;;11.70;;
6432;SDS011;3249;42.690;23.260;2023-07-13T07:49:37;13.97;;;11.73;;
6432;SDS011;3249;42.690;23.260;2023-07-13T07:52:07;19.17;;;13.03;;
6432;SDS011;3249;42.690;23.260;2023-07-13T07:54:37;16.23;;;12.43;;
6432;SDS011;3249;42.690;23.260;2023-07-13T07:57:06;21.67;;;12.60;;
6432;SDS011;3249;42.690;23.260;2023-07-13T07:59:36;17.03;;;12.17;;
6432;SDS011;3249;42.690;23.260;2023-07-13T08:02:11;22.33;;;13.23;;
6432;SDS011;3249;42.690;23.260;2023-07-13T08:04:41;17.80;;;11.53;;
6432;SDS011;3249;42.690;23.260;2023-07-13T08:07:10;17.23;;;12.30;;
6432;SDS011;3249;42.690;23.260;2023-07-13T08:09:40;18.73;;;11.43;;
6432;SDS011;3249;42.690;23.260;2023-07-13T08:12:09;17.30;;;11.57;;
6432;SDS011;3249;42.690;23.260;2023-07-13T08:14:38;15.90;;;11.30;;
6432;SDS011;3249;42.690;23.260;2023-07-13T08:17:07;16.93;;;11.00;;
6432;SDS011;3249;42.690;23.260;2023-07-13T08:19:41;12.87;;;11.53;;
6432;SDS011;3249;42.690;23.260;2023-07-13T08:22:11;21.57;;;11.60;;
6432;SDS011;3249;42.690;23.260;2023-07-13T08:24:40;13.60;;;10.77;;
6432;SDS011;3249;42.690;23.260;2023-07-13T08:27:10;14.13;;;11.20;;
6432;SDS011;3249;42.690;23.260;2023-07-13T08:29:40;13.57;;;11.33;;
6432;SDS011;3249;42.690;23.260;2023-07-13T08:32:08;13.00;;;11.30;;
6432;SDS011;3249;42.690;23.260;2023-07-13T08:34:37;11.67;;;10.50;;
6432;SDS011;3249;42.690;23.260;2023-07-13T08:37:10;16.93;;;11.33;;
6432;SDS011;3249;42.690;23.260;2023-07-13T08:39:39;11.73;;;10.53;;
6432;SDS011;3249;42.690;23.260;2023-07-13T08:42:11;13.77;;;10.53;;
6432;SDS011;3249;42.690;23.260;2023-07-13T08:44:47;12.80;;;10.10;;
6432;SDS011;3249;42.690;23.260;2023-07-13T08:47:25;15.53;;;9.23;;
6432;SDS011;3249;42.690;23.260;2023-07-13T08:50:11;18.53;;;10.67;;
6432;SDS011;3249;42.690;23.260;2023-07-13T08:52:48;17.10;;;10.87;;
6432;SDS011;3249;42.690;23.260;2023-07-13T08:55:20;16.00;;;10.03;;
6432;SDS011;3249;42.690;23.260;2023-07-13T08:57:56;12.97;;;9.93;;
6432;SDS011;3249;42.690;23.260;2023-07-13T09:00:33;12.77;;;11.10;;
6432;SDS011;3249;42.690;23.260;2023-07-13T09:03:12;14.03;;;10.77;;
6432;SDS011;3249;42.690;23.260;2023-07-13T09:05:49;17.97;;;11.67;;
6432;SDS011;3249;42.690;23.260;2023-07-13T09:11:18;13.87;;;10.90;;
6432;SDS011;3249;42.690;23.260;2023-07-13T09:13:58;14.37;;;10.27;;
6432;SDS011;3249;42.690;23.260;2023-07-13T09:16:31;9.37;;;8.30;;
6432;SDS011;3249;42.690;23.260;2023-07-13T09:19:04;11.87;;;8.83;;
6432;SDS011;3249;42.690;23.260;2023-07-13T09:21:37;13.27;;;8.47;;
6432;SDS011;3249;42.690;23.260;2023-07-13T09:24:24;10.73;;;7.87;;
6432;SDS011;3249;42.690;23.260;2023-07-13T09:26:57;10.97;;;7.90;;
6432;SDS011;3249;42.690;23.260;2023-07-13T09:29:30;8.47;;;7.17;;
6432;SDS011;3249;42.690;23.260;2023-07-13T09:32:03;7.43;;;6.13;;
6432;SDS011;3249;42.690;23.260;2023-07-13T09:34:36;7.97;;;6.37;;
6432;SDS011;3249;42.690;23.260;2023-07-13T09:37:05;12.07;;;8.10;;
6432;SDS011;3249;42.690;23.260;2023-07-13T09:39:38;9.27;;;6.57;;
6432;SDS011;3249;42.690;23.260;2023-07-13T09:42:12;11.47;;;6.47;;
6432;SDS011;3249;42.690;23.260;2023-07-13T09:44:51;8.20;;;5.23;;
6432;SDS011;3249;42.690;23.260;2023-07-13T09:47:22;7.67;;;6.07;;
6432;SDS011;3249;42.690;23.260;2023-07-13T09:49:57;7.13;;;5.87;;
6432;SDS011;3249;42.690;23.260;2023-07-13T09:52:29;10.43;;;5.90;;
6432;SDS011;3249;42.690;23.260;2023-07-13T09:58:03;8.33;;;5.90;;
6432;SDS011;3249;42.690;23.260;2023-07-13T10:00:35;6.43;;;5.80;;
6432;SDS011;3249;42.690;23.260;2023-07-13T10:03:09;7.77;;;5.70;;
6432;SDS011;3249;42.690;23.260;2023-07-13T10:05:46;6.37;;;5.73;;
6432;SDS011;3249;42.690;23.260;2023-07-13T10:08:19;7.00;;;6.10;;
6432;SDS011;3249;42.690;23.260;2023-07-13T10:10:57;6.93;;;6.23;;
6432;SDS011;3249;42.690;23.260;2023-07-13T10:13:30;7.60;;;5.90;;
6432;SDS011;3249;42.690;23.260;2023-07-13T10:16:02;6.90;;;6.20;;
6432;SDS011;3249;42.690;23.260;2023-07-13T10:18:36;8.77;;;6.20;;
6432;SDS011;3249;42.690;23.260;2023-07-13T10:21:10;10.57;;;6.00;;
6432;SDS011;3249;42.690;23.260;2023-07-13T10:23:42;11.47;;;6.53;;
6432;SDS011;3249;42.690;23.260;2023-07-13T10:26:16;7.60;;;5.77;;
6432;SDS011;3249;42.690;23.260;2023-07-13T10:28:52;7.53;;;5.80;;
6432;SDS011;3249;42.690;23.260;2023-07-13T10:31:24;8.17;;;5.57;;
6432;SDS011;3249;42.690;23.260;2023-07-13T10:33:54;8.17;;;5.67;;
6432;SDS011;3249;42.690;23.260;2023-07-13T10:36:34;7.17;;;6.47;;
6432;SDS011;3249;42.690;23.260;2023-07-13T10:39:10;12.43;;;6.10;;
6432;SDS011;3249;42.690;23.260;2023-07-13T10:41:48;7.20;;;6.20;;
6432;SDS011;3249;42.690;23.260;2023-07-13T10:44:22;6.23;;;5.70;;
6432;SDS011;3249;42.690;23.260;2023-07-13T10:49:27;7.37;;;6.00;;
6432;SDS011;3249;42.690;23.260;2023-07-13T10:51:59;9.60;;;5.83;;
6432;SDS011;3249;42.690;23.260;2023-07-13T10:54:30;6.87;;;5.63;;
6432;SDS011;3249;42.690;23.260;2023-07-13T10:57:12;8.60;;;6.13;;
6432;SDS011;3249;42.690;23.260;2023-07-13T10:59:49;6.53;;;5.80;;
6432;SDS011;3249;42.690;23.260;2023-07-13T11:02:38;6.47;;;5.87;;
6432;SDS011;3249;42.690;23.260;2023-07-13T11:05:14;12.37;;;6.40;;
6432;SDS011;3249;42.690;23.260;2023-07-13T11:08:02;7.37;;;6.67;;
6432;SDS011;3249;42.690;23.260;2023-07-13T11:10:46;12.60;;;6.17;;
6432;SDS011;3249;42.690;23.260;2023-07-13T11:19:39;13.43;;;6.17;;
6432;SDS011;3249;42.690;23.260;2023-07-13T11:22:12;8.33;;;6.43;;
6432;SDS011;3249;42.690;23.260;2023-07-13T11:27:52;10.00;;;5.93;;
6432;SDS011;3249;42.690;23.260;2023-07-13T11:30:38;7.43;;;6.60;;
6432;SDS011;3249;42.690;23.260;2023-07-13T11:33:11;7.83;;;6.27;;
6432;SDS011;3249;42.690;23.260;2023-07-13T11:35:45;6.53;;;5.77;;
6432;SDS011;3249;42.690;23.260;2023-07-13T11:38:21;7.03;;;6.23;;
6432;SDS011;3249;42.690;23.260;2023-07-13T11:40:55;7.70;;;6.03;;
6432;SDS011;3249;42.690;23.260;2023-07-13T11:43:30;10.53;;;6.90;;
6432;SDS011;3249;42.690;23.260;2023-07-13T11:46:18;8.50;;;6.47;;
6432;SDS011;3249;42.690;23.260;2023-07-13T11:48:50;7.87;;;6.37;;
6432;SDS011;3249;42.690;23.260;2023-07-13T11:51:21;9.37;;;6.00;;
6432;SDS011;3249;42.690;23.260;2023-07-13T11:53:53;8.07;;;6.93;;
6432;SDS011;3249;42.690;23.260;2023-07-13T11:56:24;6.73;;;6.10;;
6432;SDS011;3249;42.690;23.260;2023-07-13T11:58:54;7.17;;;6.40;;
6432;SDS011;3249;42.690;23.260;2023-07-13T12:01:29;10.53;;;6.20;;
6432;SDS011;3249;42.690;23.260;2023-07-13T12:04:01;9.83;;;5.93;;
6432;SDS011;3249;42.690;23.260;2023-07-13T12:06:35;10.40;;;6.10;;
6432;SDS011;3249;42.690;23.260;2023-07-13T12:09:10;9.57;;;6.10;;
6432;SDS011;3249;42.690;23.260;2023-07-13T12:11:41;6.90;;;6.20;;
6432;SDS011;3249;42.690;23.260;2023-07-13T12:14:13;8.07;;;6.10;;
6432;SDS011;3249;42.690;23.260;2023-07-13T12:16:46;6.20;;;5.60;;
6432;SDS011;3249;42.690;23.260;2023-07-13T12:19:17;8.10;;;5.73;;
6432;SDS011;3249;42.690;23.260;2023-07-13T12:21:49;10.13;;;5.80;;
6432;SDS011;3249;42.690;23.260;2023-07-13T12:24:22;9.93;;;5.97;;
6432;SDS011;3249;42.690;23.260;2023-07-13T12:26:52;7.03;;;6.20;;
6432;SDS011;3249;42.690;23.260;2023-07-13T12:29:22;7.90;;;6.33;;
6432;SDS011;3249;42.690;23.260;2023-07-13T12:31:54;6.70;;;5.77;;
6432;SDS011;3249;42.690;23.260;2023-07-13T12:34:25;7.70;;;6.33;;
6432;SDS011;3249;42.690;23.260;2023-07-13T12:36:55;8.73;;;5.97;;
6432;SDS011;3249;42.690;23.260;2023-07-13T12:39:28;6.60;;;6.00;;
6432;SDS011;3249;42.690;23.260;2023-07-13T12:42:16;9.53;;;5.87;;
6432;SDS011;3249;42.690;23.260;2023-07-13T12:44:52;7.40;;;5.83;;
6432;SDS011;3249;42.690;23.260;2023-07-13T12:47:26;7.33;;;5.27;;
6432;SDS011;3249;42.690;23.260;2023-07-13T12:49:57;12.53;;;6.30;;
6432;SDS011;3249;42.690;23.260;2023-07-13T12:52:28;9.07;;;5.57;;
6432;SDS011;3249;42.690;23.260;2023-07-13T12:55:03;13.87;;;6.07;;
6432;SDS011;3249;42.690;23.260;2023-07-13T12:57:41;6.50;;;5.90;;
6432;SDS011;3249;42.690;23.260;2023-07-13T13:00:20;11.83;;;5.90;;
6432;SDS011;3249;42.690;23.260;2023-07-13T13:02:56;9.90;;;6.27;;
6432;SDS011;3249;42.690;23.260;2023-07-13T13:05:26;7.33;;;5.83;;
6432;SDS011;3249;42.690;23.260;2023-07-13T13:07:57;6.40;;;5.07;;
6432;SDS011;3249;42.690;23.260;2023-07-13T13:10:26;10.60;;;6.30;;
6432;SDS011;3249;42.690;23.260;2023-07-13T13:12:56;10.73;;;6.17;;
6432;SDS011;3249;42.690;23.260;2023-07-13T13:15:24;8.27;;;5.93;;
6432;SDS011;3249;42.690;23.260;2023-07-13T13:17:56;12.73;;;5.90;;
6432;SDS011;3249;42.690;23.260;2023-07-13T13:20:26;8.03;;;5.70;;
6432;SDS011;3249;42.690;23.260;2023-07-13T13:22:56;10.43;;;5.93;;
6432;SDS011;3249;42.690;23.260;2023-07-13T13:25:25;7.30;;;5.97;;
6432;SDS011;3249;42.690;23.260;2023-07-13T13:27:54;7.33;;;5.53;;
6432;SDS011;3249;42.690;23.260;2023-07-13T13:30:23;9.83;;;5.57;;
6432;SDS011;3249;42.690;23.260;2023-07-13T13:32:52;10.00;;;6.00;;
6432;SDS011;3249;42.690;23.260;2023-07-13T13:35:24;14.73;;;5.90;;
6432;SDS011;3249;42.690;23.260;2023-07-13T13:37:55;6.77;;;5.77;;
6432;SDS011;3249;42.690;23.260;2023-07-13T13:40:23;7.37;;;6.03;;
6432;SDS011;3249;42.690;23.260;2023-07-13T13:42:53;9.53;;;5.77;;
6432;SDS011;3249;42.690;23.260;2023-07-13T13:45:23;8.93;;;5.50;;
6432;SDS011;3249;42.690;23.260;2023-07-13T13:47:52;11.70;;;6.00;;
6432;SDS011;3249;42.690;23.260;2023-07-13T13:50:21;8.67;;;6.90;;
6432;SDS011;3249;42.690;23.260;2023-07-13T13:52:53;8.20;;;5.67;;
6432;SDS011;3249;42.690;23.260;2023-07-13T13:55:22;14.40;;;6.37;;
6432;SDS011;3249;42.690;23.260;2023-07-13T13:57:51;8.53;;;6.00;;
6432;SDS011;3249;42.690;23.260;2023-07-13T14:00:20;7.67;;;6.10;;
6432;SDS011;3249;42.690;23.260;2023-07-13T14:02:50;8.33;;;5.93;;
6432;SDS011;3249;42.690;23.260;2023-07-13T14:05:22;10.20;;;5.78;;
6432;SDS011;3249;42.690;23.260;2023-07-13T14:07:55;7.70;;;5.60;;
6432;SDS011;3249;42.690;23.260;2023-07-13T14:10:25;7.33;;;5.60;;
6432;SDS011;3249;42.690;23.260;2023-07-13T14:12:55;5.88;;;5.35;;
6432;SDS011;3249;42.690;23.260;2023-07-13T14:15:26;7.43;;;6.33;;
6432;SDS011;3249;42.690;23.260;2023-07-13T14:17:56;10.40;;;6.40;;
6432;SDS011;3249;42.690;23.260;2023-07-13T14:20:25;11.85;;;7.05;;
6432;SDS011;3249;42.690;23.260;2023-07-13T14:22:58;9.03;;;6.00;;
6432;SDS011;3249;42.690;23.260;2023-07-13T14:25:28;11.18;;;6.20;;
6432;SDS011;3249;42.690;23.260;2023-07-13T14:27:57;6.75;;;6.05;;
6432;SDS011;3249;42.690;23.260;2023-07-13T14:30:33;10.02;;;5.82;;
6432;SDS011;3249;42.690;23.260;2023-07-13T14:33:04;11.90;;;6.47;;
6432;SDS011;3249;42.690;23.260;2023-07-13T14:35:37;10.03;;;6.57;;
6432;SDS011;3249;42.690;23.260;2023-07-13T14:38:15;12.57;;;6.43;;
6432;SDS011;3249;42.690;23.260;2023-07-13T14:40:46;10.47;;;7.37;;
6432;SDS011;3249;42.690;23.260;2023-07-13T14:43:16;10.30;;;6.17;;
6432;SDS011;3249;42.690;23.260;2023-07-13T14:45:46;9.57;;;6.22;;
6432;SDS011;3249;42.690;23.260;2023-07-13T14:48:22;11.27;;;6.32;;
6432;SDS011;3249;42.690;23.260;2023-07-13T14:50:53;11.60;;;6.50;;
6432;SDS011;3249;42.690;23.260;2023-07-13T14:53:27;10.07;;;7.65;;
6432;SDS011;3249;42.690;23.260;2023-07-13T14:55:56;7.65;;;6.28;;
6432;SDS011;3249;42.690;23.260;2023-07-13T14:58:25;11.85;;;6.10;;
6432;SDS011;3249;42.690;23.260;2023-07-13T15:00:55;8.70;;;6.20;;
6432;SDS011;3249;42.690;23.260;2023-07-13T15:03:24;9.80;;;5.82;;
6432;SDS011;3249;42.690;23.260;2023-07-13T15:05:53;12.15;;;6.22;;
6432;SDS011;3249;42.690;23.260;2023-07-13T15:08:22;9.25;;;6.03;;
6432;SDS011;3249;42.690;23.260;2023-07-13T15:10:54;10.25;;;6.55;;
6432;SDS011;3249;42.690;23.260;2023-07-13T15:13:25;10.10;;;6.65;;
6432;SDS011;3249;42.690;23.260;2023-07-13T15:15:55;9.57;;;6.85;;
6432;SDS011;3249;42.690;23.260;2023-07-13T15:18:35;9.25;;;6.15;;
6432;SDS011;3249;42.690;23.260;2023-07-13T15:21:10;11.70;;;6.50;;
6432;SDS011;3249;42.690;23.260;2023-07-13T15:23:45;8.45;;;6.35;;
6432;SDS011;3249;42.690;23.260;2023-07-13T15:26:30;11.77;;;6.50;;
6432;SDS011;3249;42.690;23.260;2023-07-13T15:29:06;11.07;;;6.15;;
6432;SDS011;3249;42.690;23.260;2023-07-13T15:31:35;11.80;;;6.50;;
6432;SDS011;3249;42.690;23.260;2023-07-13T15:34:09;9.00;;;5.97;;